CheckWX is a tool to help pilots better visualize weather data.  It is not intended as a substitute for an official pre-flight weather briefing.

15:46:53 UTC

VTBU METAR
U-Tapao International Airport
Rayong, Thailand
Current

17 mins ago

VTBU 291530Z 18008KT 9999 FEW020 29/25 Q1009 NOSIG
Observed
Mar-29 @ 15:30 UTC
Wind
  • 180° at 8 KTS
Visibility
10,000+ meters
Flight Rules
VFR
Cloud Levels
  • Few at 2,000' AGL
Temperature
29°C / 84°F
Dewpoint
25°C / 77°F
Humidity
79%
Altimeter
29.79" Hg
Pressure
1008.92 hPa
Previous

47 mins ago

VTBU 291500Z 18008KT 9999 FEW020 29/25 Q1009 NOSIG
Observed
Mar-29 @ 15:00 UTC
Wind
  • 180° at 8 KTS
Visibility
10,000+ meters
Flight Rules
VFR
Cloud Levels
  • Few at 2,000' AGL
Temperature
29°C / 84°F
Dewpoint
25°C / 77°F
Humidity
79%
Altimeter
29.79" Hg
Pressure
1008.92 hPa
Previous

1 hour ago

VTBU 291430Z 18008KT 9999 FEW020 29/25 Q1008 NOSIG
Observed
Mar-29 @ 14:30 UTC
Wind
  • 180° at 8 KTS
Visibility
10,000+ meters
Flight Rules
VFR
Cloud Levels
  • Few at 2,000' AGL
Temperature
29°C / 84°F
Dewpoint
25°C / 77°F
Humidity
79%
Altimeter
29.76" Hg
Pressure
1007.92 hPa